宮崎空港の過去48時間の天気

宮崎空港 (Miyazaki)

現在時刻: 2/23 01:51 JST (2/22 16:51 UTC) 以下の時間は現地時間です。

過去48時間のMETAR気象情報
時間 風向 風速(m/s) 視程 気温(℃) 湿度(%) 気圧(hPa) 天気現象
22 21:00 北西 3 9,000m 11 71 1019
22 20:00 北東 3 9,000m 11 71 1018
22 19:00 東北東 2 10km以上 11 71 1018
22 18:00 南東 2 10km以上 12 67 1018
22 17:00 南南東 3 10km以上 12 67 1017
22 16:00 南東 3 10km以上 12 67 1017
22 15:00 南東 2 10km以上 12 62 1017
22 14:00 東北東 3 10km以上 12 62 1017
22 09:00 西北西 3 7,000m 8 76 1020
22 08:00 西北西 4 7,000m 8 76 1019
22 07:00 西 4 7,000m 8 71 1019
22 06:10 西 3 7,000m 7 81 1019
RJFM 221200Z 31005KT 9000 FEW030 BKN100 11/06 Q1019
RJFM 221100Z 05005KT 9000 FEW025 SCT030 BKN100 11/06 Q1018
RJFM 221000Z 07004KT 360V100 9999 FEW030 SCT050 BKN140 11/06 Q1018
RJFM 220900Z 14004KT 110V170 9999 FEW030 BKN140 12/06 Q1018
RJFM 220800Z 15005KT 110V180 9999 FEW030 BKN150 BKN/// 12/06 Q1017
RJFM 220700Z 13005KT 9999 FEW030 SCT150 BKN/// 12/06 Q1017
RJFM 220600Z 13004KT 9999 FEW030 SCT150 BKN/// 12/05 Q1017
RJFM 220500Z 07005KT 020V110 9999 FEW030 SCT050 BKN080 12/05 Q1017
RJFM 220000Z 29005KT 7000 FEW020 SCT100 BKN110 08/04 Q1020
RJFM 212300Z 29007KT 7000 FEW020 SCT100 BKN110 08/04 Q1019
RJFM 212200Z 28007KT 7000 FEW020 SCT030 BKN100 08/03 Q1019
RJFM 212110Z 27005KT 7000 FEW020 SCT030 BKN100 07/04 Q1019 RMK 1CU020 3CU030 5AC100 A3010